This is the latest recevied weather packets stored in our database for station/object K6CQU-13. If no packets are shown the sender has not sent any weather packets the latest 10 day(s).
| Time | Temp. | Humidity | Pressure | Rain* | Wind** | Luminosity | Snow |
|---|---|---|---|---|---|---|---|
| 1777562417 | 15° C | 78% | 1014.2 hPa | 0 mm | - | 331 W/m² | - |
| 1777562117 | 15° C | 80% | 1014.3 hPa | 0 mm | - | 315 W/m² | - |
| 1777561517 | 14.44° C | 82% | 1014.2 hPa | 0 mm | - | 282 W/m² | - |
| 1777559717 | 12.78° C | 86% | 1014.1 hPa | 0 mm | - | 186 W/m² | - |
| 1777559417 | 12.78° C | 87% | 1014.1 hPa | 0 mm | - | 170 W/m² | - |
| 1777558817 | 12.78° C | 89% | 1014 hPa | 0 mm | - | 139 W/m² | - |
| 1777558517 | 12.22° C | 90% | 1014 hPa | 0 mm | - | 126 W/m² | - |
| 1777558217 | 12.22° C | 91% | 1014 hPa | 0 mm | - | 113 W/m² | - |
| 1777557917 | 11.67° C | 91% | 1014.1 hPa | 0 mm | - | 101 W/m² | - |
| 1777557617 | 11.11° C | 91% | 1014 hPa | 0 mm | - | 88 W/m² | - |
| 1777557317 | 11.11° C | 90% | 1014 hPa | 0 mm | - | 75 W/m² | - |
| 1777556717 | 11.11° C | 90% | 1014 hPa | 0 mm | - | 27 W/m² | - |
| 1777556117 | 10.56° C | 90% | 1013.9 hPa | 0 mm | - | 17 W/m² | - |
| 1777555817 | 10.56° C | 89% | 1014 hPa | 0 mm | - | 13 W/m² | - |
| 1777555217 | 10.56° C | 89% | 1014 hPa | 0 mm | - | 8 W/m² | - |
| 1777554917 | 10.56° C | 89% | 1014 hPa | 0 mm | - | 5 W/m² | - |
| 1777554617 | 10.56° C | 88% | 1014 hPa | 0 mm | - | 0 W/m² | - |
| 1777554317 | 10.56° C | 88% | 1014 hPa | 0 mm | - | 0 W/m² | - |
| 1777553717 | 11.11° C | 88% | 1014 hPa | 0 mm | - | 0 W/m² | - |
| 1777553417 | 11.11° C | 87% | 1013.9 hPa | 0 mm | - | 0 W/m² | - |
| 1777553117 | 11.11° C | 87% | 1013.9 hPa | 0 mm | - | 0 W/m² | - |
| 1777552517 | 11.11° C | 86% | 1013.8 hPa | 0 mm | - | 0 W/m² | - |
| 1777552217 | 11.11° C | 86% | 1013.9 hPa | 0 mm | - | 0 W/m² | - |
| 1777551917 | 11.11° C | 85% | 1013.8 hPa | 0 mm | - | 0 W/m² | - |
| 1777551617 | 11.11° C | 85% | 1013.8 hPa | 0 mm | - | 0 W/m² | - |
* Rain latest hour (hover to see other rain measurements)
** Current wind speed in m/s (hover to see current wind gust speed)